Time;durP1;ratioP1;P1;durP2;ratioP2;P2;SDS_P1;SDS_P2;PMS_P1;PMS_P2;Temp;Humidity;BMP_temperature;BMP_pressure;BME280_temperature;BME280_humidity;BME280_pressure;Samples;Min_cycle;Max_cycle;Signal;HPM_P1;HPM_P2
2022/11/06 00:02:23;;;;;;;58.42;33.47;;;26.00;99.90;;;;;;5032012;28;20478;-62
2022/11/06 00:04:50;;;;;;;41.60;23.83;;;26.00;99.90;;;;;;5031645;28;20045;-62
2022/11/06 00:07:16;;;;;;;32.53;17.60;;;26.20;99.90;;;;;;5031594;28;20434;-62
2022/11/06 00:09:43;;;;;;;27.17;17.02;;;26.10;99.90;;;;;;5031889;28;20108;-62
2022/11/06 00:12:09;;;;;;;28.45;17.05;;;26.20;99.90;;;;;;5031654;28;20490;-62
2022/11/06 00:14:36;;;;;;;28.83;19.65;;;26.10;99.90;;;;;;5055277;28;20033;-61
2022/11/06 00:17:03;;;;;;;28.38;17.77;;;26.10;99.90;;;;;;5073901;28;20036;-62
2022/11/06 00:19:29;;;;;;;82.53;25.73;;;26.10;99.90;;;;;;5073517;28;20028;-62
2022/11/06 00:21:55;;;;;;;33.63;19.05;;;26.20;99.90;;;;;;5073361;28;20108;-62
2022/11/06 00:24:22;;;;;;;33.75;19.85;;;26.20;99.90;;;;;;5058214;28;20028;-61
2022/11/06 00:26:48;;;;;;;30.55;19.17;;;26.30;99.90;;;;;;5062394;28;20087;-62
2022/11/06 00:29:15;;;;;;;38.63;21.70;;;26.40;99.90;;;;;;5053359;28;20029;-62
2022/11/06 00:31:42;;;;;;;45.28;23.83;;;26.50;99.90;;;;;;5066355;28;20032;-63
2022/11/06 00:34:09;;;;;;;66.78;42.35;;;26.40;99.90;;;;;;5073292;28;20104;-60
2022/11/06 00:36:36;;;;;;;47.38;30.38;;;26.50;99.90;;;;;;5073138;28;20035;-62
2022/11/06 00:39:03;;;;;;;36.90;22.10;;;26.50;99.90;;;;;;5073319;28;20021;-62
2022/11/06 00:41:30;;;;;;;37.45;21.17;;;26.50;99.90;;;;;;5073328;28;20465;-62
2022/11/06 00:43:59;;;;;;;36.20;19.90;;;26.40;99.90;;;;;;5070465;28;20048;-62
2022/11/06 00:46:26;;;;;;;36.10;18.30;;;26.40;99.90;;;;;;5053097;28;20116;-63
2022/11/06 00:48:53;;;;;;;28.67;15.80;;;26.40;99.90;;;;;;5071406;28;20032;-61
2022/11/06 00:51:40;;;;;;;22.13;14.23;;;26.50;99.90;;;;;;5073342;28;20082;-65
2022/11/06 00:54:11;;;;;;;34.85;19.60;;;26.50;99.90;;;;;;5072064;28;20067;-63
2022/11/06 00:56:37;;;;;;;32.58;15.93;;;26.50;99.90;;;;;;5074545;28;20035;-65
2022/11/06 00:59:07;;;;;;;21.58;13.55;;;26.70;99.90;;;;;;5074340;28;20032;-66
2022/11/06 01:01:38;;;;;;;25.77;16.15;;;26.70;99.90;;;;;;5074143;28;20056;-66
2022/11/06 01:04:11;;;;;;;164.20;109.35;;;26.80;99.90;;;;;;5073819;28;20074;-65
2022/11/06 01:06:43;;;;;;;29.55;16.77;;;26.90;99.90;;;;;;5073833;28;20143;-65
2022/11/06 01:09:13;;;;;;;51.95;32.20;;;27.00;99.90;;;;;;5073888;28;20100;-64
2022/11/06 01:11:42;;;;;;;73.53;51.00;;;27.00;99.90;;;;;;5074066;28;20033;-64
2022/11/06 01:14:12;;;;;;;27.77;15.20;;;27.10;99.90;;;;;;5073986;28;20047;-61
2022/11/06 01:16:39;;;;;;;30.88;16.83;;;27.10;99.90;;;;;;5074079;28;20051;-65
2022/11/06 01:19:06;;;;;;;34.95;21.70;;;27.10;99.90;;;;;;5074905;28;20493;-64
2022/11/06 01:21:35;;;;;;;32.47;19.27;;;27.20;99.90;;;;;;5077767;28;20066;-64
2022/11/06 01:24:05;;;;;;;24.65;16.20;;;27.20;99.90;;;;;;5077913;28;20028;-64
2022/11/06 01:26:32;;;;;;;30.25;15.48;;;27.20;99.90;;;;;;5077738;28;20107;-63
2022/11/06 01:28:59;;;;;;;23.73;13.55;;;27.20;99.90;;;;;;5077455;28;20035;-64
2022/11/06 01:31:28;;;;;;;28.10;18.08;;;27.30;99.90;;;;;;5077572;28;20025;-64
2022/11/06 01:33:56;;;;;;;30.85;16.40;;;27.30;99.90;;;;;;5077716;28;20024;-64
2022/11/06 01:36:23;;;;;;;24.80;14.05;;;27.40;99.90;;;;;;5077409;28;20021;-64
2022/11/06 01:38:54;;;;;;;29.48;21.15;;;27.50;99.90;;;;;;5077955;28;20452;-64
2022/11/06 01:41:24;;;;;;;21.05;14.43;;;27.60;99.90;;;;;;5077550;28;20024;-64
2022/11/06 01:43:54;;;;;;;20.13;10.90;;;27.80;99.90;;;;;;5077202;28;20493;-64
2022/11/06 01:46:23;;;;;;;13.93;8.75;;;27.80;99.90;;;;;;5077384;28;20032;-65
2022/11/06 01:49:03;;;;;;;17.42;10.25;;;27.90;99.90;;;;;;5077431;28;20028;-65
2022/11/06 01:51:33;;;;;;;19.17;11.65;;;27.90;99.90;;;;;;5077940;28;20384;-64
2022/11/06 01:54:02;;;;;;;15.10;10.45;;;27.90;99.90;;;;;;5076958;28;20107;-64
2022/11/06 01:56:28;;;;;;;18.00;12.02;;;28.10;99.90;;;;;;5076477;28;20081;-65
2022/11/06 01:58:55;;;;;;;29.30;13.18;;;28.20;99.90;;;;;;5076655;28;20039;-65
2022/11/06 02:01:22;;;;;;;27.90;15.13;;;28.40;99.90;;;;;;5076593;28;20054;-65
2022/11/06 02:04:07;;;;;;;17.83;11.43;;;28.50;99.90;;;;;;5076377;28;20021;-65
2022/11/06 02:06:34;;;;;;;23.13;14.82;;;28.40;99.90;;;;;;5077001;28;20095;-65
2022/11/06 02:09:02;;;;;;;25.85;14.85;;;28.50;99.90;;;;;;5076254;28;20428;-65
2022/11/06 02:11:28;;;;;;;24.40;13.73;;;28.50;99.90;;;;;;5076518;28;20068;-65
2022/11/06 02:14:08;;;;;;;30.48;13.77;;;28.80;99.90;;;;;;5076068;28;20101;-65
2022/11/06 02:17:05;;;;;;;22.10;13.10;;;29.00;99.90;;;;;;5075856;28;20504;-64
2022/11/06 02:19:47;;;;;;;25.15;14.88;;;29.10;99.90;;;;;;5073932;28;20078;-65
2022/11/06 02:22:25;;;;;;;22.48;14.23;;;29.30;99.90;;;;;;5075928;28;20052;-64
2022/11/06 02:24:55;;;;;;;29.30;15.02;;;29.40;99.90;;;;;;5075503;28;20025;-65
2022/11/06 02:27:23;;;;;;;26.20;15.30;;;29.50;99.90;;;;;;5075742;28;20415;-63
2022/11/06 02:29:56;;;;;;;26.25;15.45;;;29.50;99.90;;;;;;5075210;28;20063;-64
2022/11/06 02:32:32;;;;;;;24.20;14.82;;;29.50;99.90;;;;;;5075337;28;20103;-65
2022/11/06 02:35:02;;;;;;;25.52;14.90;;;29.50;99.90;;;;;;5073611;28;20052;-63
2022/11/06 02:37:34;;;;;;;33.00;15.88;;;29.50;99.90;;;;;;5073432;28;20036;-64
2022/11/06 02:40:05;;;;;;;31.80;21.20;;;29.50;99.90;;;;;;5073605;28;20056;-64
2022/11/06 02:42:36;;;;;;;30.40;18.53;;;29.60;99.90;;;;;;5073813;28;20123;-63
2022/11/06 02:45:04;;;;;;;35.70;20.42;;;29.70;99.90;;;;;;5074613;28;20021;-64
2022/11/06 02:47:32;;;;;;;26.75;16.92;;;29.70;99.90;;;;;;5074726;28;20108;-64
2022/11/06 02:50:16;;;;;;;25.30;15.80;;;29.70;99.90;;;;;;5075067;28;20473;-64
2022/11/06 02:52:51;;;;;;;31.08;15.57;;;29.60;99.90;;;;;;5075288;28;20416;-64
2022/11/06 02:55:27;;;;;;;23.02;14.32;;;29.60;99.90;;;;;;5074869;28;20024;-64
2022/11/06 02:57:59;;;;;;;25.50;15.57;;;29.70;99.90;;;;;;5075018;28;20024;-65
2022/11/06 03:00:27;;;;;;;24.90;15.85;;;29.70;99.90;;;;;;5074838;28;20025;-64
2022/11/06 03:02:59;;;;;;;23.55;15.88;;;29.80;99.90;;;;;;5074992;28;20077;-65
2022/11/06 03:05:27;;;;;;;29.05;18.98;;;29.80;99.90;;;;;;5075019;28;20032;-65
2022/11/06 03:08:16;;;;;;;35.88;26.55;;;29.90;99.90;;;;;;5074628;28;20127;-64
2022/11/06 03:11:05;;;;;;;32.53;20.67;;;30.00;99.90;;;;;;5074788;28;20017;-65
2022/11/06 03:13:44;;;;;;;28.50;18.67;;;30.00;99.90;;;;;;5074619;28;20032;-65
2022/11/06 03:16:50;;;;;;;22.95;17.35;;;29.90;99.90;;;;;;5074705;28;20025;-64
2022/11/06 03:19:22;;;;;;;32.50;24.98;;;29.90;99.90;;;;;;5074955;28;20474;-65
2022/11/06 03:22:01;;;;;;;42.47;30.38;;;30.00;99.90;;;;;;5074595;28;20040;-64
2022/11/06 03:24:41;;;;;;;31.85;23.80;;;30.00;99.90;;;;;;5074170;28;20174;-64
2022/11/06 03:27:17;;;;;;;23.83;17.85;;;30.10;99.90;;;;;;5074066;28;20385;-63
2022/11/06 03:30:05;;;;;;;26.00;18.48;;;30.20;99.90;;;;;;5074435;28;20381;-64
2022/11/06 03:32:51;;;;;;;38.65;25.27;;;30.20;99.90;;;;;;5012231;28;20164;-63
2022/11/06 03:35:36;;;;;;;34.35;27.23;;;30.30;99.90;;;;;;5012024;28;20112;-65
2022/11/06 03:38:11;;;;;;;34.97;27.92;;;30.50;99.90;;;;;;5012237;28;20030;-66
2022/11/06 03:40:44;;;;;;;38.10;24.30;;;30.40;99.90;;;;;;5011827;28;20065;-63
2022/11/06 03:43:14;;;;;;;35.40;25.33;;;30.50;99.90;;;;;;5011208;28;20050;-64
2022/11/06 03:45:43;;;;;;;33.65;23.55;;;30.60;99.90;;;;;;5011281;28;20410;-62
2022/11/06 03:48:19;;;;;;;45.13;29.60;;;30.60;99.90;;;;;;5011324;28;20124;-62
2022/11/06 03:50:57;;;;;;;34.20;26.73;;;30.60;99.90;;;;;;5011188;28;20026;-62
2022/11/06 03:53:31;;;;;;;35.03;27.13;;;30.60;99.90;;;;;;5011437;28;20414;-62
2022/11/06 03:56:06;;;;;;;64.00;45.22;;;30.60;99.90;;;;;;5011253;28;20069;-61
2022/11/06 03:58:37;;;;;;;41.85;30.67;;;30.70;99.90;;;;;;5011060;28;20034;-62
2022/11/06 04:01:07;;;;;;;33.90;26.87;;;30.70;99.90;;;;;;5009525;28;20360;-61
2022/11/06 04:03:51;;;;;;;55.15;38.63;;;30.80;99.90;;;;;;5051808;28;20037;-61
2022/11/06 04:06:24;;;;;;;55.47;41.00;;;30.90;99.90;;;;;;5072656;28;20024;-61
2022/11/06 04:14:31;;;;;;;41.17;30.40;;;30.90;99.90;;;;;;5072373;28;20499;-63
2022/11/06 04:17:02;;;;;;;56.10;38.70;;;30.80;99.90;;;;;;5072447;28;20108;-63
2022/11/06 04:19:29;;;;;;;38.70;30.63;;;30.90;99.90;;;;;;5072275;28;20055;-63
2022/11/06 04:22:13;;;;;;;39.28;32.58;;;30.90;99.90;;;;;;5072191;28;20020;-63
2022/11/06 04:27:40;;;;;;;32.78;27.55;;;30.90;99.90;;;;;;5072178;28;20036;-63
2022/11/06 04:30:11;;;;;;;29.52;23.33;;;31.00;99.90;;;;;;5071975;28;20032;-62
2022/11/06 04:32:48;;;;;;;34.30;28.27;;;31.00;99.90;;;;;;5072427;28;20024;-62
2022/11/06 04:35:34;;;;;;;28.33;24.35;;;31.00;99.90;;;;;;5071949;28;20112;-62
2022/11/06 04:38:09;;;;;;;34.65;26.15;;;31.00;99.90;;;;;;5072012;28;20065;-62
2022/11/06 04:40:58;;;;;;;41.70;32.00;;;31.00;99.90;;;;;;5071682;28;20059;-62
2022/11/06 04:43:59;;;;;;;67.93;45.90;;;31.00;99.90;;;;;;5071051;28;20490;-62
2022/11/06 04:46:32;;;;;;;69.22;50.95;;;31.10;99.90;;;;;;5007942;28;20113;-63
2022/11/06 04:49:01;;;;;;;44.42;32.20;;;31.10;99.90;;;;;;5010136;28;20034;-61
2022/11/06 04:51:32;;;;;;;28.77;23.23;;;31.00;99.90;;;;;;5010088;28;20037;-62
2022/11/06 04:53:59;;;;;;;29.25;25.08;;;31.00;99.90;;;;;;5009974;28;20038;-63
2022/11/06 04:56:31;;;;;;;48.67;29.75;;;31.00;99.90;;;;;;5009981;28;20033;-62
2022/11/06 04:58:57;;;;;;;109.03;75.70;;;31.00;99.90;;;;;;5010212;28;20061;-63
2022/11/06 05:01:24;;;;;;;30.65;23.55;;;31.00;99.90;;;;;;5010188;28;20038;-63
2022/11/06 05:03:51;;;;;;;25.75;20.80;;;31.10;99.90;;;;;;5009920;28;20038;-63
2022/11/06 05:06:17;;;;;;;24.30;19.05;;;31.10;99.90;;;;;;5010653;28;20044;-63
2022/11/06 05:08:45;;;;;;;30.50;18.85;;;31.10;99.90;;;;;;5010307;28;20026;-63
2022/11/06 05:11:11;;;;;;;26.38;18.40;;;31.20;99.90;;;;;;5010049;28;20101;-63
2022/11/06 05:13:38;;;;;;;22.15;18.48;;;31.10;99.90;;;;;;5010568;28;20073;-64
2022/11/06 05:16:05;;;;;;;28.60;21.55;;;31.20;99.90;;;;;;5010445;28;20029;-64
2022/11/06 05:18:32;;;;;;;25.92;19.48;;;31.10;99.90;;;;;;5010379;28;20078;-64
2022/11/06 05:23:37;;;;;;;28.27;22.08;;;31.00;99.90;;;;;;5010372;28;20030;-64
2022/11/06 05:26:05;;;;;;;37.25;27.88;;;31.10;99.90;;;;;;5010673;28;20030;-64
2022/11/06 05:28:31;;;;;;;22.73;18.90;;;31.10;99.90;;;;;;5010263;28;20070;-63
2022/11/06 05:30:58;;;;;;;83.30;61.38;;;31.10;99.90;;;;;;5010123;28;20035;-62
2022/11/06 05:33:25;;;;;;;35.42;26.85;;;31.00;99.90;;;;;;5010361;28;20038;-63
2022/11/06 05:35:51;;;;;;;30.70;24.70;;;31.00;99.90;;;;;;5009940;28;20030;-63
2022/11/06 05:38:19;;;;;;;25.95;18.50;;;31.10;99.90;;;;;;5010287;28;20112;-61
2022/11/06 05:40:45;;;;;;;34.22;27.23;;;31.10;99.90;;;;;;5003775;28;20088;-63
2022/11/06 05:43:12;;;;;;;23.85;19.05;;;31.00;99.90;;;;;;5050504;28;20052;-63
2022/11/06 05:45:38;;;;;;;26.02;21.35;;;31.00;99.90;;;;;;5066691;28;20040;-63
2022/11/06 05:48:05;;;;;;;37.00;26.60;;;31.00;99.90;;;;;;5050992;28;20033;-62
2022/11/06 05:50:32;;;;;;;39.45;30.67;;;30.90;99.90;;;;;;5057658;28;20095;-63
2022/11/06 05:52:59;;;;;;;39.28;31.30;;;31.00;99.90;;;;;;5071269;28;20024;-63
2022/11/06 05:55:26;;;;;;;29.48;23.08;;;31.00;99.90;;;;;;5071228;28;20551;-62
2022/11/06 05:57:52;;;;;;;23.60;20.40;;;31.10;99.90;;;;;;5071151;28;20059;-62
2022/11/06 06:00:19;;;;;;;26.63;22.52;;;31.20;99.90;;;;;;5071557;28;20029;-62
2022/11/06 06:02:45;;;;;;;27.10;21.67;;;31.20;99.90;;;;;;5071428;28;20102;-63
2022/11/06 06:05:13;;;;;;;28.85;20.90;;;31.10;99.90;;;;;;5072413;28;20103;-62
2022/11/06 06:07:40;;;;;;;34.33;23.60;;;31.10;99.90;;;;;;5075173;28;20028;-63
2022/11/06 06:10:07;;;;;;;31.45;24.27;;;31.10;99.90;;;;;;5075340;28;20355;-63
2022/11/06 06:12:34;;;;;;;31.30;24.08;;;31.10;99.90;;;;;;5074844;28;20119;-62
2022/11/06 06:15:00;;;;;;;28.83;20.92;;;31.10;99.90;;;;;;5074793;28;20029;-63
2022/11/06 06:17:27;;;;;;;69.07;54.83;;;31.20;99.90;;;;;;5074555;28;20021;-65
2022/11/06 06:19:53;;;;;;;54.60;43.22;;;31.20;99.90;;;;;;5074955;28;20190;-63
2022/11/06 06:22:20;;;;;;;39.75;33.85;;;31.20;99.90;;;;;;5074984;28;20564;-64
2022/11/06 06:24:46;;;;;;;34.25;25.63;;;31.30;99.90;;;;;;5074529;28;20413;-65
2022/11/06 06:27:13;;;;;;;116.50;81.80;;;31.30;99.90;;;;;;5074854;28;20020;-65
2022/11/06 06:29:40;;;;;;;69.95;57.00;;;31.50;99.90;;;;;;5075316;28;20084;-64
2022/11/06 06:32:06;;;;;;;61.60;46.13;;;31.50;99.90;;;;;;5074776;28;20021;-65
2022/11/06 06:34:33;;;;;;;45.90;31.75;;;31.60;99.90;;;;;;5075001;28;20021;-64
2022/11/06 06:37:00;;;;;;;116.40;31.92;;;31.90;99.90;;;;;;5074954;28;20367;-64
2022/11/06 06:39:26;;;;;;;29.98;20.98;;;31.90;99.90;;;;;;5074421;28;20028;-64
2022/11/06 06:41:53;;;;;;;28.27;19.05;;;31.90;99.90;;;;;;5074595;28;20130;-64
2022/11/06 06:44:20;;;;;;;27.65;22.63;;;31.90;99.90;;;;;;5074341;28;20029;-65
2022/11/06 06:46:46;;;;;;;27.55;20.67;;;31.90;99.90;;;;;;5074092;28;20029;-64
2022/11/06 06:49:13;;;;;;;29.52;20.88;;;31.90;99.90;;;;;;5074269;28;20162;-63
2022/11/06 06:51:39;;;;;;;28.88;23.10;;;31.80;99.90;;;;;;5074535;28;20107;-64
2022/11/06 06:54:06;;;;;;;50.88;33.08;;;31.80;99.90;;;;;;5074276;28;20035;-64
2022/11/06 06:56:32;;;;;;;27.00;22.70;;;31.90;99.90;;;;;;5074788;28;20036;-64
2022/11/06 06:58:59;;;;;;;43.47;30.48;;;32.00;99.90;;;;;;5074749;28;20020;-63
2022/11/06 07:01:25;;;;;;;40.65;33.10;;;31.90;99.90;;;;;;5074513;28;20024;-63
2022/11/06 07:03:52;;;;;;;35.33;25.60;;;31.90;99.90;;;;;;5074347;28;20036;-65
2022/11/06 07:06:19;;;;;;;38.78;32.33;;;31.90;99.90;;;;;;5074417;28;20219;-65
2022/11/06 07:08:46;;;;;;;33.40;27.98;;;32.00;99.90;;;;;;5074150;28;20035;-64
2022/11/06 07:11:12;;;;;;;28.08;22.50;;;31.90;99.90;;;;;;5074154;28;20095;-64
2022/11/06 07:13:39;;;;;;;29.85;23.85;;;31.90;99.90;;;;;;5074428;28;20082;-64
2022/11/06 07:16:08;;;;;;;28.17;22.52;;;31.90;99.90;;;;;;5073866;28;20028;-64
2022/11/06 07:18:36;;;;;;;25.05;21.15;;;31.90;99.90;;;;;;5074008;28;20033;-64
2022/11/06 07:21:05;;;;;;;29.83;24.05;;;31.90;99.90;;;;;;5074213;28;20477;-63
2022/11/06 07:23:33;;;;;;;25.17;21.88;;;32.10;99.90;;;;;;5074071;28;20036;-63
2022/11/06 07:26:00;;;;;;;31.73;27.65;;;32.10;99.90;;;;;;5056001;28;20535;-64
2022/11/06 07:28:27;;;;;;;132.50;91.78;;;32.20;99.90;;;;;;5073766;28;20139;-63
2022/11/06 07:30:58;;;;;;;43.38;32.67;;;32.20;99.90;;;;;;5073761;28;20021;-62
2022/11/06 07:33:25;;;;;;;43.10;33.65;;;32.10;99.90;;;;;;5073997;28;20021;-63
2022/11/06 07:35:52;;;;;;;43.05;34.85;;;32.00;99.90;;;;;;5073877;28;20036;-64
2022/11/06 07:38:18;;;;;;;46.55;38.10;;;31.90;99.90;;;;;;5073693;28;20032;-63
2022/11/06 07:40:45;;;;;;;45.15;35.67;;;31.80;99.90;;;;;;5074116;28;20033;-64
2022/11/06 07:43:12;;;;;;;78.97;61.38;;;31.80;99.90;;;;;;5072798;28;20417;-64
2022/11/06 07:45:39;;;;;;;98.57;82.38;;;31.80;99.90;;;;;;5069020;28;20028;-63
2022/11/06 07:48:06;;;;;;;49.22;39.35;;;31.90;99.90;;;;;;5071713;28;20247;-63
2022/11/06 07:50:33;;;;;;;71.53;39.30;;;31.90;99.90;;;;;;5074147;28;20016;-64
2022/11/06 07:53:02;;;;;;;40.33;34.53;;;31.80;99.90;;;;;;5074018;28;20034;-64
2022/11/06 07:55:28;;;;;;;87.13;59.00;;;31.80;99.90;;;;;;5071737;28;20093;-63
2022/11/06 07:57:55;;;;;;;46.33;36.63;;;31.80;99.90;;;;;;5073998;28;20017;-62
2022/11/06 08:00:21;;;;;;;41.47;34.72;;;31.70;99.90;;;;;;5073946;28;20096;-62
2022/11/06 08:02:51;;;;;;;199.05;145.65;;;31.70;99.90;;;;;;5074070;28;20056;-62
2022/11/06 08:05:18;;;;;;;81.97;64.93;;;31.70;99.90;;;;;;5071697;28;20032;-63
2022/11/06 08:07:45;;;;;;;44.58;39.15;;;31.70;99.90;;;;;;5074951;28;20416;-63
2022/11/06 08:10:11;;;;;;;64.32;46.13;;;31.70;99.90;;;;;;5073505;28;20372;-62
2022/11/06 08:12:38;;;;;;;43.65;33.45;;;31.70;99.90;;;;;;5072129;28;20051;-62
2022/11/06 08:15:05;;;;;;;32.70;25.15;;;31.70;99.90;;;;;;5072195;28;20497;-62
2022/11/06 08:17:31;;;;;;;41.70;32.25;;;31.70;99.90;;;;;;5071701;28;20364;-62
2022/11/06 08:19:58;;;;;;;49.10;36.45;;;31.60;99.90;;;;;;5071973;28;20044;-65
2022/11/06 08:22:24;;;;;;;43.67;35.20;;;31.60;99.90;;;;;;5071944;28;20078;-63
2022/11/06 08:24:51;;;;;;;51.17;40.10;;;31.60;99.90;;;;;;5071387;28;20331;-62
2022/11/06 08:27:18;;;;;;;42.50;35.63;;;31.60;99.90;;;;;;5067067;28;20121;-62
2022/11/06 08:29:44;;;;;;;35.83;30.02;;;31.50;99.90;;;;;;5071038;28;20024;-63
2022/11/06 08:32:11;;;;;;;44.55;37.42;;;31.50;99.90;;;;;;5071533;28;20048;-62
2022/11/06 08:34:37;;;;;;;84.95;73.43;;;31.50;99.90;;;;;;5069137;28;20020;-65
2022/11/06 08:37:04;;;;;;;80.50;51.60;;;31.50;99.90;;;;;;5072340;28;20082;-64
2022/11/06 08:39:31;;;;;;;46.97;38.15;;;31.50;99.90;;;;;;5072247;28;20070;-66
2022/11/06 08:41:57;;;;;;;35.20;29.48;;;31.50;99.90;;;;;;5072532;28;20032;-65
2022/11/06 08:44:24;;;;;;;31.77;26.88;;;31.50;99.90;;;;;;5071838;28;20043;-65
2022/11/06 08:46:50;;;;;;;34.70;27.02;;;31.50;99.90;;;;;;5069142;28;20036;-66
2022/11/06 08:49:17;;;;;;;29.80;25.83;;;31.50;99.90;;;;;;5071015;28;20032;-65
2022/11/06 08:51:43;;;;;;;31.45;23.80;;;31.60;99.90;;;;;;5071372;28;20422;-66
2022/11/06 08:54:11;;;;;;;29.27;24.95;;;31.50;99.90;;;;;;5071910;28;20228;-66
2022/11/06 08:56:37;;;;;;;34.53;27.08;;;31.50;99.90;;;;;;5071765;28;20020;-65
2022/11/06 08:59:04;;;;;;;44.22;33.95;;;31.40;99.90;;;;;;5071181;28;20350;-66
2022/11/06 09:01:30;;;;;;;33.22;27.60;;;31.50;99.90;;;;;;5071386;28;20032;-66
2022/11/06 09:03:57;;;;;;;31.45;25.95;;;31.40;99.90;;;;;;5071348;28;20070;-65
2022/11/06 09:06:24;;;;;;;39.15;29.52;;;31.40;99.90;;;;;;5071230;28;20127;-65
2022/11/06 09:08:51;;;;;;;84.05;52.97;;;31.30;99.90;;;;;;5072294;28;20020;-64
2022/11/06 09:11:17;;;;;;;72.95;46.08;;;31.40;99.90;;;;;;5072585;28;20493;-63
2022/11/06 09:13:44;;;;;;;73.53;55.70;;;31.40;99.90;;;;;;5072063;28;20098;-63
2022/11/06 09:16:10;;;;;;;138.65;86.30;;;31.40;99.90;;;;;;5071589;28;20118;-65
2022/11/06 09:18:37;;;;;;;102.20;61.42;;;31.40;99.90;;;;;;5072625;28;20543;-64
2022/11/06 09:21:04;;;;;;;59.88;41.40;;;31.40;99.90;;;;;;5068033;28;20021;-64
2022/11/06 09:23:30;;;;;;;37.55;25.08;;;31.40;99.90;;;;;;5052591;28;20461;-63
2022/11/06 09:25:57;;;;;;;43.45;31.67;;;31.40;99.90;;;;;;5051751;28;20040;-63
2022/11/06 09:28:24;;;;;;;58.95;41.10;;;31.40;99.90;;;;;;5050262;28;20021;-63
2022/11/06 09:30:50;;;;;;;62.97;42.20;;;31.50;99.90;;;;;;5049938;28;20676;-63
2022/11/06 09:33:17;;;;;;;83.35;53.05;;;31.40;99.90;;;;;;5051260;28;20111;-63
2022/11/06 09:35:43;;;;;;;65.95;47.10;;;31.40;99.90;;;;;;5052041;28;20068;-64
2022/11/06 09:38:12;;;;;;;73.47;47.40;;;31.40;99.90;;;;;;5051818;28;20044;-64
2022/11/06 09:40:48;;;;;;;70.78;47.15;;;31.30;99.90;;;;;;5053637;28;20036;-63
2022/11/06 09:43:21;;;;;;;69.72;49.28;;;31.20;99.90;;;;;;5055934;28;20045;-63
2022/11/06 09:45:49;;;;;;;61.30;39.78;;;31.20;99.90;;;;;;5056161;28;20032;-64
2022/11/06 09:48:21;;;;;;;86.35;54.47;;;31.20;99.90;;;;;;5056186;28;20470;-63
2022/11/06 09:51:17;;;;;;;68.78;45.20;;;31.20;99.90;;;;;;5056195;28;20389;-64
2022/11/06 09:54:04;;;;;;;64.60;44.90;;;31.20;99.90;;;;;;4955975;29;20481;-65
2022/11/06 09:56:34;;;;;;;51.97;37.08;;;31.10;99.90;;;;;;4955625;29;20078;-65
2022/11/06 09:59:04;;;;;;;160.43;107.00;;;31.20;99.90;;;;;;4955959;29;20027;-65
2022/11/06 10:01:46;;;;;;;196.85;135.50;;;31.10;99.90;;;;;;4955466;29;20412;-64
2022/11/06 10:04:41;;;;;;;90.80;56.70;;;31.10;99.90;;;;;;4956049;29;20079;-64
2022/11/06 10:07:23;;;;;;;90.65;54.38;;;31.00;99.90;;;;;;4917547;29;20047;-64
2022/11/06 10:09:49;;;;;;;109.50;71.90;;;30.90;99.90;;;;;;4917781;29;20124;-65
2022/11/06 10:12:30;;;;;;;111.32;69.72;;;30.90;99.90;;;;;;4917568;29;20597;-65
2022/11/06 10:15:19;;;;;;;64.40;42.25;;;30.80;99.90;;;;;;4917689;29;20548;-65
2022/11/06 10:18:06;;;;;;;50.03;34.15;;;30.80;99.90;;;;;;4933789;29;20127;-64
2022/11/06 10:20:40;;;;;;;58.22;37.42;;;30.70;99.90;;;;;;4937239;29;20039;-64
2022/11/06 10:23:19;;;;;;;66.57;35.63;;;30.70;99.90;;;;;;4937714;28;20032;-63
2022/11/06 10:26:06;;;;;;;54.13;38.17;;;30.70;99.90;;;;;;5011442;28;20028;-64
2022/11/06 10:29:01;;;;;;;67.93;38.55;;;30.70;99.90;;;;;;5008223;28;20041;-64
2022/11/06 10:31:45;;;;;;;61.17;38.05;;;30.70;99.90;;;;;;5011135;28;20621;-66
2022/11/06 10:34:15;;;;;;;67.22;38.97;;;30.70;99.90;;;;;;5012159;28;20489;-63
2022/11/06 10:36:48;;;;;;;68.47;40.85;;;30.70;99.90;;;;;;5010658;28;20025;-64
2022/11/06 10:39:21;;;;;;;56.40;35.83;;;30.60;99.90;;;;;;5011444;28;20108;-64
2022/11/06 10:41:53;;;;;;;52.90;37.78;;;30.60;99.90;;;;;;5013642;28;20430;-64
2022/11/06 10:44:31;;;;;;;45.70;32.72;;;30.50;99.90;;;;;;5013614;28;20049;-64
2022/11/06 10:47:08;;;;;;;45.88;30.63;;;30.40;99.90;;;;;;5012762;28;20100;-64
2022/11/06 10:49:41;;;;;;;54.17;36.85;;;30.40;99.90;;;;;;5017522;28;20025;-63
2022/11/06 10:52:09;;;;;;;53.00;33.63;;;30.40;99.90;;;;;;5053842;28;20047;-64
2022/11/06 10:54:47;;;;;;;44.85;31.23;;;30.40;99.90;;;;;;5054816;28;20035;-64
2022/11/06 10:57:16;;;;;;;42.45;29.63;;;30.30;99.90;;;;;;5053222;28;20045;-62
2022/11/06 10:59:42;;;;;;;42.30;29.77;;;30.30;99.90;;;;;;5053183;28;20025;-64
2022/11/06 11:02:30;;;;;;;38.53;28.90;;;30.20;99.90;;;;;;5053661;28;20029;-64
2022/11/06 11:04:57;;;;;;;60.70;40.13;;;30.10;99.90;;;;;;5009907;28;20129;-64
2022/11/06 11:07:24;;;;;;;45.90;33.78;;;30.10;99.90;;;;;;5012336;28;20065;-64
2022/11/06 11:09:51;;;;;;;50.15;34.13;;;30.00;99.90;;;;;;5011714;28;20398;-65
2022/11/06 11:12:31;;;;;;;45.33;33.70;;;30.00;99.90;;;;;;5011889;28;20558;-64
2022/11/06 11:15:18;;;;;;;42.97;31.55;;;30.10;99.90;;;;;;5012310;28;20042;-64
2022/11/06 11:18:13;;;;;;;44.97;31.63;;;30.00;99.90;;;;;;5006612;28;20290;-63
2022/11/06 11:20:42;;;;;;;52.22;34.22;;;30.00;99.90;;;;;;5005904;28;20356;-63
2022/11/06 11:23:17;;;;;;;38.08;27.63;;;30.10;99.90;;;;;;5012142;28;20026;-62
2022/11/06 11:25:47;;;;;;;28.65;22.25;;;30.00;99.90;;;;;;5011648;28;20472;-63
2022/11/06 11:28:33;;;;;;;32.78;22.98;;;30.00;99.90;;;;;;5009286;28;20598;-64
2022/11/06 11:31:00;;;;;;;32.97;23.67;;;30.00;99.90;;;;;;5011005;28;20041;-63
2022/11/06 11:33:27;;;;;;;36.22;24.13;;;29.90;99.90;;;;;;5011230;28;20021;-65
2022/11/06 11:35:54;;;;;;;33.75;23.10;;;29.90;99.90;;;;;;5038291;28;20043;-63
2022/11/06 11:38:21;;;;;;;28.88;20.38;;;29.90;99.90;;;;;;5049498;28;20036;-64
2022/11/06 11:40:51;;;;;;;30.42;19.73;;;29.80;99.90;;;;;;5053936;28;20087;-61
2022/11/06 11:43:24;;;;;;;25.08;19.42;;;29.80;99.90;;;;;;5067867;28;20052;-63
2022/11/06 11:46:01;;;;;;;26.73;17.10;;;29.80;99.90;;;;;;5071302;28;20016;-63
2022/11/06 11:48:48;;;;;;;26.75;17.80;;;29.70;99.90;;;;;;5073655;28;20074;-64
2022/11/06 11:51:23;;;;;;;26.55;20.65;;;29.70;99.90;;;;;;5072102;28;20020;-62
2022/11/06 11:53:51;;;;;;;29.63;20.33;;;29.70;99.90;;;;;;5073925;28;20073;-62
2022/11/06 11:56:21;;;;;;;25.00;18.48;;;29.60;99.90;;;;;;5073870;28;20023;-64
2022/11/06 11:58:55;;;;;;;21.10;17.67;;;29.60;99.90;;;;;;5073601;28;20024;-63
2022/11/06 12:01:42;;;;;;;29.38;21.35;;;29.60;99.90;;;;;;5072929;28;20025;-64
2022/11/06 12:04:25;;;;;;;40.67;29.45;;;29.60;99.90;;;;;;5071423;28;20535;-63
2022/11/06 12:06:56;;;;;;;24.38;17.10;;;29.60;99.90;;;;;;5072827;28;20051;-63
2022/11/06 12:09:25;;;;;;;27.87;20.43;;;29.60;99.90;;;;;;5072295;28;20134;-63
2022/11/06 12:11:55;;;;;;;31.27;20.38;;;29.60;99.90;;;;;;5073203;28;20029;-63
2022/11/06 12:14:21;;;;;;;33.72;18.40;;;29.50;99.90;;;;;;5073785;28;20551;-63
2022/11/06 12:16:51;;;;;;;35.50;22.17;;;29.60;99.90;;;;;;5073558;28;20439;-63
2022/11/06 12:19:20;;;;;;;33.95;22.35;;;29.60;99.90;;;;;;5073483;28;20493;-62
2022/11/06 12:21:54;;;;;;;36.40;24.00;;;29.60;99.90;;;;;;5072163;28;20024;-64
2022/11/06 12:24:26;;;;;;;37.10;22.25;;;29.60;99.90;;;;;;5072163;28;20020;-64
2022/11/06 12:26:52;;;;;;;31.73;21.38;;;29.60;99.90;;;;;;5069966;28;20167;-63
2022/11/06 12:29:26;;;;;;;30.08;22.13;;;29.60;99.90;;;;;;5072344;28;20040;-63
2022/11/06 12:31:59;;;;;;;34.13;23.65;;;29.50;99.90;;;;;;5072568;28;20028;-64
2022/11/06 12:34:33;;;;;;;36.10;24.35;;;29.50;99.90;;;;;;5071874;28;20547;-63
2022/11/06 12:37:20;;;;;;;36.72;23.42;;;29.50;99.90;;;;;;5070978;28;20035;-63
2022/11/06 12:39:56;;;;;;;44.83;22.70;;;29.50;99.90;;;;;;5008411;28;20030;-64
2022/11/06 12:42:30;;;;;;;35.70;24.08;;;29.50;99.90;;;;;;5007379;28;20057;-63
2022/11/06 12:44:57;;;;;;;31.10;22.10;;;29.50;99.90;;;;;;5005846;28;20025;-62
2022/11/06 12:47:41;;;;;;;32.05;22.02;;;29.50;99.90;;;;;;5007951;28;20062;-63
2022/11/06 12:50:23;;;;;;;41.42;24.73;;;29.50;99.90;;;;;;5003611;28;20026;-62
2022/11/06 12:53:02;;;;;;;33.58;21.58;;;29.50;99.90;;;;;;4996555;28;20029;-64
2022/11/06 12:55:34;;;;;;;51.78;29.40;;;29.40;99.90;;;;;;5009600;28;20038;-64
2022/11/06 12:58:22;;;;;;;62.13;27.38;;;29.40;99.90;;;;;;5008333;28;20029;-64